createdAt,value
2022-12-10T00:01:43.730Z,98439.91
2022-12-10T00:04:12.224Z,98435.50
2022-12-10T00:06:40.677Z,98434.66
2022-12-10T00:09:12.842Z,98433.84
2022-12-10T00:11:41.264Z,98431.25
2022-12-10T00:14:09.024Z,98438.97
2022-12-10T00:16:38.501Z,98436.63
2022-12-10T00:19:07.737Z,98442.50
2022-12-10T00:21:36.918Z,98450.22
2022-12-10T00:24:06.027Z,98447.63
2022-12-10T00:26:36.184Z,98454.66
2022-12-10T00:29:05.439Z,98449.31
2022-12-10T00:31:35.947Z,98457.09
2022-12-10T00:34:06.246Z,98459.72
2022-12-10T00:36:38.124Z,98453.03
2022-12-10T00:39:06.218Z,98455.53
2022-12-10T00:41:33.706Z,98456.22
2022-12-10T00:44:01.278Z,98452.94
2022-12-10T00:46:29.208Z,98459.78
2022-12-10T00:48:56.704Z,98453.81
2022-12-10T00:51:26.645Z,98447.88
2022-12-10T00:53:56.122Z,98452.94
2022-12-10T00:56:26.722Z,98448.56
2022-12-10T00:58:54.348Z,98455.41
2022-12-10T01:01:25.462Z,98453.53
2022-12-10T01:03:55.078Z,98447.44
2022-12-10T01:06:23.978Z,98454.41
2022-12-10T01:08:53.512Z,98444.78
2022-12-10T01:11:26.119Z,98449.88
2022-12-10T01:13:54.263Z,98449.88
2022-12-10T01:16:28.948Z,98444.78
2022-12-10T01:18:58.343Z,98439.78
2022-12-10T01:21:32.012Z,98451.69
2022-12-10T01:24:00.724Z,98457.69
2022-12-10T01:26:36.936Z,98463.84
2022-12-10T01:29:06.306Z,98471.66
2022-12-10T01:31:40.348Z,98473.38
2022-12-10T01:34:14.959Z,98480.28
2022-12-10T01:36:44.998Z,98479.75
2022-12-10T01:39:16.455Z,98480.34
2022-12-10T01:41:47.127Z,98473.50
2022-12-10T01:44:19.967Z,98481.25
2022-12-10T01:46:50.691Z,98476.78
2022-12-10T01:49:21.455Z,98481.97
2022-12-10T01:51:53.897Z,98483.84
2022-12-10T01:54:33.544Z,98476.00
2022-12-10T01:57:05.648Z,98482.09
2022-12-10T01:59:36.158Z,98477.06
2022-12-10T02:02:13.279Z,98471.66
2022-12-10T02:04:49.287Z,98479.59
2022-12-10T02:07:28.307Z,98463.06
2022-12-10T02:10:04.750Z,98466.44
2022-12-10T02:12:40.664Z,98457.91
2022-12-10T02:15:18.485Z,98460.56
2022-12-10T02:17:53.997Z,98468.28
2022-12-10T02:20:32.085Z,98472.72
2022-12-10T02:23:10.965Z,98469.88
2022-12-10T02:25:54.258Z,98477.72
2022-12-10T02:28:46.256Z,98478.56
2022-12-10T02:31:19.846Z,98491.66
2022-12-10T02:33:52.757Z,98489.84
2022-12-10T02:36:23.092Z,98482.09
2022-12-10T02:38:54.015Z,98481.28
2022-12-10T02:41:31.496Z,98478.84
2022-12-10T02:44:03.957Z,98486.50
2022-12-10T02:46:33.962Z,98480.38
2022-12-10T02:49:05.167Z,98475.22
2022-12-10T02:51:34.327Z,98478.63
2022-12-10T02:54:42.446Z,98479.47
2022-12-10T02:57:31.207Z,98495.41
2022-12-10T03:00:08.036Z,98490.75
2022-12-10T03:03:03.753Z,98488.25
2022-12-10T03:05:42.073Z,98489.88
2022-12-10T03:08:15.791Z,98494.25
2022-12-10T03:10:46.820Z,98484.00
2022-12-10T03:13:18.266Z,98478.91
2022-12-10T03:15:47.195Z,98483.13
2022-12-10T03:18:18.415Z,98497.09
2022-12-10T03:20:48.179Z,98497.59
2022-12-10T03:23:18.340Z,98495.19
2022-12-10T03:25:48.039Z,98487.56
2022-12-10T03:28:17.052Z,98497.03
2022-12-10T03:30:54.090Z,98495.22
2022-12-10T03:33:21.674Z,98503.88
2022-12-10T03:35:51.217Z,98501.31
2022-12-10T03:38:20.116Z,98502.97
2022-12-10T03:40:47.560Z,98510.03
2022-12-10T03:43:15.254Z,98501.16
2022-12-10T03:45:43.545Z,98504.66
2022-12-10T03:48:10.950Z,98503.09
2022-12-10T03:50:38.388Z,98503.91
2022-12-10T03:53:05.848Z,98511.69
2022-12-10T03:55:34.130Z,98510.81
2022-12-10T03:58:01.392Z,98504.19
2022-12-10T04:00:34.615Z,98503.09
2022-12-10T04:03:01.731Z,98503.16
2022-12-10T04:05:29.179Z,98507.53
2022-12-10T04:07:56.651Z,98515.94
2022-12-10T04:10:24.105Z,98524.78
2022-12-10T04:13:10.958Z,98527.47
2022-12-10T04:16:03.655Z,98533.31
2022-12-10T04:18:31.038Z,98536.66
2022-12-10T04:21:22.728Z,98544.47
2022-12-10T04:24:08.735Z,98541.97
2022-12-10T04:26:54.608Z,98545.47
2022-12-10T04:29:28.612Z,98546.28
2022-12-10T04:31:56.424Z,98543.19
2022-12-10T04:34:24.785Z,98550.84
2022-12-10T04:36:52.669Z,98548.25
2022-12-10T04:39:19.999Z,98560.44
2022-12-10T04:41:49.215Z,98563.19
2022-12-10T04:44:17.696Z,98564.66
2022-12-10T04:46:45.652Z,98555.09
2022-12-10T04:49:13.998Z,98564.75
2022-12-10T04:51:42.084Z,98558.66
2022-12-10T04:54:15.547Z,98564.00
2022-12-10T04:56:44.779Z,98560.50
2022-12-10T04:59:12.158Z,98564.47
2022-12-10T05:01:39.624Z,98556.81
2022-12-10T05:04:09.163Z,98561.09
2022-12-10T05:06:36.938Z,98566.31
2022-12-10T05:09:05.777Z,98568.22
2022-12-10T05:11:34.076Z,98559.56
2022-12-10T05:14:03.325Z,98560.25
2022-12-10T05:16:33.654Z,98557.75
2022-12-10T05:19:01.315Z,98561.34
2022-12-10T05:21:51.189Z,98558.66
2022-12-10T05:24:19.306Z,98574.41
2022-12-10T05:26:46.734Z,98572.63
2022-12-10T05:29:14.862Z,98565.59
2022-12-10T05:31:41.926Z,98563.72
2022-12-10T05:34:11.917Z,98562.34
2022-12-10T05:36:40.126Z,98558.81
2022-12-10T05:39:11.324Z,98556.69
2022-12-10T05:41:40.272Z,98560.59
2022-12-10T05:44:14.726Z,98557.69
2022-12-10T05:46:41.912Z,98556.78
2022-12-10T05:49:09.395Z,98551.09
2022-12-10T05:51:43.833Z,98552.59
2022-12-10T05:54:11.266Z,98551.84
2022-12-10T05:56:38.770Z,98554.44
2022-12-10T05:59:10.034Z,98562.91
2022-12-10T06:01:42.134Z,98558.44
2022-12-10T06:04:09.138Z,98563.06
2022-12-10T06:06:39.991Z,98562.78
2022-12-10T06:09:12.124Z,98558.66
2022-12-10T06:11:39.147Z,98557.75
2022-12-10T06:14:06.781Z,98562.44
2022-12-10T06:16:34.161Z,98565.72
2022-12-10T06:19:01.691Z,98566.47
2022-12-10T06:21:29.041Z,98564.69
2022-12-10T06:23:56.477Z,98558.72
2022-12-10T06:26:26.888Z,98565.75
2022-12-10T06:28:54.934Z,98563.22
2022-12-10T06:31:22.924Z,98566.63
2022-12-10T06:33:50.824Z,98564.84
2022-12-10T06:36:19.018Z,98561.47
2022-12-10T06:38:47.034Z,98569.38
2022-12-10T06:41:16.818Z,98572.00
2022-12-10T06:43:43.947Z,98578.81
2022-12-10T06:46:14.575Z,98582.22
2022-12-10T06:48:42.251Z,98592.50
2022-12-10T06:51:11.519Z,98593.59
2022-12-10T06:53:40.758Z,98592.53
2022-12-10T06:56:12.188Z,98594.53
2022-12-10T06:58:41.746Z,98598.69
2022-12-10T07:01:15.397Z,98606.34
2022-12-10T07:03:42.976Z,98607.06
2022-12-10T07:06:12.510Z,98600.19
2022-12-10T07:08:39.607Z,98609.59
2022-12-10T07:11:08.930Z,98619.94
2022-12-10T07:13:36.416Z,98624.41
2022-12-10T07:16:16.845Z,98627.06
2022-12-10T07:18:50.237Z,98621.13
2022-12-10T07:21:25.298Z,98631.50
2022-12-10T07:23:55.047Z,98630.56
2022-12-10T07:26:23.087Z,98630.50
2022-12-10T07:28:53.599Z,98614.56
2022-12-10T07:31:22.503Z,98610.31
2022-12-10T07:33:52.152Z,98612.19
2022-12-10T07:36:20.874Z,98611.25
2022-12-10T07:38:47.884Z,98616.63
2022-12-10T07:41:16.262Z,98619.19
2022-12-10T07:43:45.796Z,98624.44
2022-12-10T07:46:17.460Z,98638.53
2022-12-10T07:48:46.498Z,98628.13
2022-12-10T07:51:15.063Z,98629.84
2022-12-10T07:53:43.402Z,98630.72
2022-12-10T07:56:13.035Z,98645.66
2022-12-10T07:58:45.595Z,98650.06
2022-12-10T08:01:18.353Z,98659.28
2022-12-10T08:03:45.999Z,98650.63
2022-12-10T08:06:18.495Z,98671.38
2022-12-10T08:08:46.587Z,98677.59
2022-12-10T08:11:15.072Z,98680.16
2022-12-10T08:13:42.574Z,98681.88
2022-12-10T08:16:17.532Z,98683.56
2022-12-10T08:18:46.704Z,98671.38
2022-12-10T08:21:20.424Z,98671.31
2022-12-10T08:23:49.574Z,98675.94
2022-12-10T08:26:19.315Z,98668.97
2022-12-10T08:28:54.118Z,98660.13
2022-12-10T08:31:23.241Z,98655.13
2022-12-10T08:33:51.647Z,98658.44
2022-12-10T08:36:20.007Z,98658.44
2022-12-10T08:38:47.993Z,98657.59
2022-12-10T08:41:19.415Z,98655.97
2022-12-10T08:43:48.520Z,98656.72
2022-12-10T08:46:16.990Z,98662.78
2022-12-10T08:48:46.623Z,98661.91
2022-12-10T08:51:17.269Z,98660.09
2022-12-10T08:53:45.423Z,98661.75
2022-12-10T08:56:13.828Z,98665.38
2022-12-10T08:58:43.060Z,98661.03
2022-12-10T09:01:13.256Z,98661.09
2022-12-10T09:03:40.605Z,98660.09
2022-12-10T09:06:14.782Z,98670.50
2022-12-10T09:08:48.657Z,98656.44
2022-12-10T09:11:23.576Z,98660.78
2022-12-10T09:13:57.396Z,98660.19
2022-12-10T09:16:36.532Z,98657.53
2022-12-10T09:19:05.636Z,98660.31
2022-12-10T09:21:33.124Z,98659.22
2022-12-10T09:24:01.278Z,98659.13
2022-12-10T09:26:28.644Z,98640.34
2022-12-10T09:28:56.609Z,98654.03
2022-12-10T09:31:24.209Z,98650.75
2022-12-10T09:33:53.536Z,98646.59
2022-12-10T09:36:22.414Z,98648.06
2022-12-10T09:38:53.379Z,98636.63
2022-12-10T09:41:45.277Z,98640.91
2022-12-10T09:44:24.193Z,98637.44
2022-12-10T09:46:58.075Z,98646.94
2022-12-10T09:49:38.908Z,98641.72
2022-12-10T09:52:16.556Z,98643.44
2022-12-10T09:54:55.792Z,98639.97
2022-12-10T09:57:32.795Z,98642.50
2022-12-10T10:00:19.498Z,98643.31
2022-12-10T10:02:51.048Z,98643.38
2022-12-10T10:05:26.114Z,98632.84
2022-12-10T10:08:02.285Z,98636.97
2022-12-10T10:10:34.167Z,98633.47
2022-12-10T10:13:10.308Z,98635.22
2022-12-10T10:15:44.745Z,98631.75
2022-12-10T10:18:32.748Z,98623.91
2022-12-10T10:21:02.442Z,98629.19
2022-12-10T10:23:29.916Z,98619.53
2022-12-10T10:25:57.797Z,98615.28
2022-12-10T10:28:24.906Z,98596.06
2022-12-10T10:30:55.563Z,98603.09
2022-12-10T10:33:22.878Z,98596.94
2022-12-10T10:35:55.409Z,98592.78
2022-12-10T10:38:27.735Z,98600.34
2022-12-10T10:41:01.481Z,98608.22
2022-12-10T10:43:42.653Z,98588.25
2022-12-10T10:46:36.766Z,98605.88
2022-12-10T10:49:33.155Z,98609.97
2022-12-10T10:52:15.122Z,98615.19
2022-12-10T10:54:46.326Z,98626.53
2022-12-10T10:57:34.847Z,98621.97
2022-12-10T11:00:23.681Z,98615.03
2022-12-10T11:02:53.334Z,98617.72
2022-12-10T11:05:36.372Z,98620.47
2022-12-10T11:08:15.033Z,98617.72
2022-12-10T11:10:56.432Z,98627.28
2022-12-10T11:13:30.086Z,98629.06
2022-12-10T11:16:12.214Z,98639.53
2022-12-10T11:18:43.553Z,98636.09
2022-12-10T11:21:13.594Z,98637.59
2022-12-10T11:23:43.783Z,98640.28
2022-12-10T11:26:38.289Z,98632.41
2022-12-10T11:29:33.684Z,98629.00
2022-12-10T11:32:00.762Z,98626.25
2022-12-10T11:34:58.370Z,98616.66
2022-12-10T11:37:34.491Z,98619.25
2022-12-10T11:40:15.463Z,98620.19
2022-12-10T11:43:21.434Z,98622.78
2022-12-10T11:46:00.800Z,98623.63
2022-12-10T11:48:41.856Z,98618.41
2022-12-10T11:51:46.265Z,98616.66
2022-12-10T11:54:42.090Z,98627.09
2022-12-10T11:57:34.742Z,98623.63
2022-12-10T12:00:14.871Z,98626.28
2022-12-10T12:02:59.264Z,98625.38
2022-12-10T12:05:48.775Z,98619.44
2022-12-10T12:08:40.657Z,98628.00
2022-12-10T12:11:40.172Z,98625.44
2022-12-10T12:14:28.225Z,98622.94
2022-12-10T12:17:20.889Z,98609.84
2022-12-10T12:19:53.573Z,98617.72
2022-12-10T12:22:32.285Z,98625.94
2022-12-10T12:25:12.339Z,98622.28
2022-12-10T12:27:50.872Z,98614.56
2022-12-10T12:30:24.177Z,98617.22
2022-12-10T12:33:16.579Z,98613.72
2022-12-10T12:36:13.342Z,98615.38
2022-12-10T12:39:09.619Z,98613.66
2022-12-10T12:41:48.478Z,98610.13
2022-12-10T12:44:44.958Z,98607.56
2022-12-10T12:47:30.657Z,98606.66
2022-12-10T12:50:00.242Z,98601.66
2022-12-10T12:52:46.385Z,98602.59
2022-12-10T12:55:40.038Z,98606.00
2022-12-10T12:58:14.133Z,98616.38
2022-12-10T13:00:47.714Z,98613.78
2022-12-10T13:03:33.758Z,98610.47
2022-12-10T13:06:23.400Z,98612.06
2022-12-10T13:08:59.747Z,98606.97
2022-12-10T13:11:37.613Z,98615.56
2022-12-10T13:14:11.046Z,98619.19
2022-12-10T13:16:38.379Z,98613.38
2022-12-10T13:19:20.923Z,98615.81
2022-12-10T13:22:02.484Z,98627.94
2022-12-10T13:25:00.175Z,98622.75
2022-12-10T13:27:35.277Z,98626.09
2022-12-10T13:30:05.213Z,98630.50
2022-12-10T13:32:34.946Z,98628.84
2022-12-10T13:35:11.064Z,98628.88
2022-12-10T13:37:51.358Z,98630.50
2022-12-10T13:40:31.348Z,98635.72
2022-12-10T13:43:56.717Z,98636.50
2022-12-10T13:46:35.680Z,98639.06
2022-12-10T13:49:05.674Z,98636.56
2022-12-10T13:51:49.559Z,98645.22
2022-12-10T13:54:49.722Z,98641.78
2022-12-10T13:57:27.457Z,98642.66
2022-12-10T14:00:30.496Z,98643.53
2022-12-10T14:03:03.934Z,98641.88
2022-12-10T14:05:48.562Z,98639.22
2022-12-10T14:08:40.065Z,98655.81
2022-12-10T14:11:21.835Z,98651.63
2022-12-10T14:13:54.198Z,98660.09
2022-12-10T14:16:25.119Z,98654.84
2022-12-10T14:19:00.949Z,98651.38
2022-12-10T14:21:34.155Z,98650.44
2022-12-10T14:24:01.419Z,98653.97
2022-12-10T14:26:32.509Z,98664.13
2022-12-10T14:29:27.416Z,98652.84
2022-12-10T14:31:58.351Z,98652.03
2022-12-10T14:34:30.069Z,98650.44
2022-12-10T14:37:03.252Z,98654.72
2022-12-10T14:39:34.545Z,98662.56
2022-12-10T14:42:11.926Z,98667.66
2022-12-10T14:44:41.418Z,98676.38
2022-12-10T14:47:20.482Z,98677.31
2022-12-10T14:49:51.347Z,98683.53
2022-12-10T14:52:25.585Z,98676.63
2022-12-10T14:54:54.177Z,98673.91
2022-12-10T14:57:32.375Z,98679.97
2022-12-10T15:00:19.518Z,98676.69
2022-12-10T15:02:51.137Z,98671.59
2022-12-10T15:05:23.059Z,98679.31
2022-12-10T15:07:58.994Z,98670.69
2022-12-10T15:10:41.895Z,98671.84
2022-12-10T15:13:21.540Z,98668.22
2022-12-10T15:15:54.043Z,98671.75
2022-12-10T15:18:28.838Z,98676.94
2022-12-10T15:21:22.249Z,98680.13
2022-12-10T15:23:52.560Z,98683.53
2022-12-10T15:26:21.654Z,98676.56
2022-12-10T15:29:28.420Z,98680.91
2022-12-10T15:31:59.532Z,98676.75
2022-12-10T15:34:36.132Z,98690.44
2022-12-10T15:37:06.027Z,98692.22
2022-12-10T15:39:54.539Z,98686.94
2022-12-10T15:42:45.111Z,98692.91
2022-12-10T15:45:24.667Z,98693.00
2022-12-10T15:47:52.950Z,98688.81
2022-12-10T15:50:20.558Z,98691.44
2022-12-10T15:52:49.598Z,98690.66
2022-12-10T15:55:19.507Z,98680.13
2022-12-10T15:57:51.087Z,98683.66
2022-12-10T16:00:25.235Z,98682.75
2022-12-10T16:03:00.783Z,98687.28
2022-12-10T16:05:36.510Z,98682.09
2022-12-10T16:08:18.845Z,98689.94
2022-12-10T16:10:49.044Z,98683.78
2022-12-10T16:13:21.528Z,98674.31
2022-12-10T16:16:15.889Z,98664.56
2022-12-10T16:18:43.819Z,98664.69
2022-12-10T16:21:11.865Z,98669.94
2022-12-10T16:23:40.938Z,98676.78
2022-12-10T16:26:20.653Z,98682.94
2022-12-10T16:28:49.461Z,98685.56
2022-12-10T16:31:22.259Z,98685.56
2022-12-10T16:33:53.968Z,98672.53
2022-12-10T16:36:22.181Z,98673.47
2022-12-10T16:38:50.180Z,98671.97
2022-12-10T16:41:23.952Z,98671.09
2022-12-10T16:43:54.444Z,98671.00
2022-12-10T16:46:22.663Z,98664.97
2022-12-10T16:48:51.606Z,98663.28
2022-12-10T16:51:24.770Z,98671.25
2022-12-10T16:53:52.518Z,98666.81
2022-12-10T16:56:20.500Z,98665.03
2022-12-10T16:58:49.863Z,98656.38
2022-12-10T17:01:38.970Z,98659.06
2022-12-10T17:04:06.601Z,98659.09
2022-12-10T17:06:34.115Z,98661.75
2022-12-10T17:09:01.979Z,98672.84
2022-12-10T17:11:51.139Z,98676.22
2022-12-10T17:14:32.281Z,98662.34
2022-12-10T17:17:06.788Z,98664.03
2022-12-10T17:19:36.983Z,98662.38
2022-12-10T17:22:05.943Z,98672.78
2022-12-10T17:24:33.520Z,98683.94
2022-12-10T17:27:20.929Z,98678.81
2022-12-10T17:29:54.840Z,98674.41
2022-12-10T17:32:23.678Z,98673.59
2022-12-10T17:34:50.977Z,98677.03
2022-12-10T17:37:20.592Z,98678.84
2022-12-10T17:39:47.907Z,98687.50
2022-12-10T17:42:16.368Z,98684.88
2022-12-10T17:44:45.721Z,98683.94
2022-12-10T17:47:24.478Z,98681.38
2022-12-10T17:49:53.605Z,98677.97
2022-12-10T17:52:28.774Z,98678.84
2022-12-10T17:54:57.470Z,98679.66
2022-12-10T17:57:27.086Z,98677.97
2022-12-10T17:59:55.577Z,98683.16
2022-12-10T18:02:24.502Z,98671.84
2022-12-10T18:04:51.948Z,98676.22
2022-12-10T18:07:20.085Z,98670.28
2022-12-10T18:09:48.543Z,98664.22
2022-12-10T18:12:16.045Z,98662.38
2022-12-10T18:14:44.006Z,98660.69
2022-12-10T18:17:19.535Z,98659.91
2022-12-10T18:19:53.305Z,98656.38
2022-12-10T18:22:21.247Z,98649.56
2022-12-10T18:24:50.134Z,98661.75
2022-12-10T18:27:19.515Z,98666.16
2022-12-10T18:29:48.019Z,98654.81
2022-12-10T18:32:22.808Z,98651.25
2022-12-10T18:34:50.539Z,98645.31
2022-12-10T18:37:18.289Z,98641.69
2022-12-10T18:39:47.867Z,98643.66
2022-12-10T18:42:15.155Z,98658.28
2022-12-10T18:44:43.020Z,98659.16
2022-12-10T18:47:13.457Z,98659.88
2022-12-10T18:49:41.909Z,98663.41
2022-12-10T18:52:12.809Z,98665.06
2022-12-10T18:54:41.761Z,98658.13
2022-12-10T19:00:03.787Z,98661.63
2022-12-10T19:02:34.057Z,98659.88
2022-12-10T19:05:01.809Z,98656.53
2022-12-10T19:07:29.868Z,98653.00
2022-12-10T19:09:58.327Z,98667.69
2022-12-10T19:12:26.018Z,98662.44
2022-12-10T19:14:54.425Z,98666.88
2022-12-10T19:17:23.944Z,98670.31
2022-12-10T19:19:51.933Z,98661.63
2022-12-10T19:22:20.384Z,98679.19
2022-12-10T19:24:50.026Z,98668.66
2022-12-10T19:27:18.106Z,98665.13
2022-12-10T19:29:47.084Z,98663.34
2022-12-10T19:32:15.269Z,98676.56
2022-12-10T19:34:43.283Z,98675.59
2022-12-10T19:37:12.611Z,98681.53
2022-12-10T19:39:41.185Z,98684.16
2022-12-10T19:42:09.420Z,98691.09
2022-12-10T19:44:39.560Z,98688.50
2022-12-10T19:47:20.220Z,98691.97
2022-12-10T19:49:49.710Z,98682.34
2022-12-10T19:52:20.326Z,98701.44
2022-12-10T19:54:48.184Z,98698.81
2022-12-10T19:57:16.974Z,98691.94
2022-12-10T19:59:46.982Z,98692.84
2022-12-10T20:02:16.273Z,98688.50
2022-12-10T20:04:44.956Z,98685.00
2022-12-10T20:07:13.915Z,98681.53
2022-12-10T20:09:42.085Z,98679.03
2022-12-10T20:12:11.044Z,98682.47
2022-12-10T20:14:40.982Z,98680.81
2022-12-10T20:17:15.165Z,98671.31
2022-12-10T20:19:46.484Z,98668.66
2022-12-10T20:22:15.836Z,98658.34
2022-12-10T20:24:43.893Z,98653.03
2022-12-10T20:27:18.399Z,98657.50
2022-12-10T20:29:47.816Z,98643.53
2022-12-10T20:32:16.486Z,98653.13
2022-12-10T20:34:44.786Z,98644.56
2022-12-10T20:37:14.618Z,98635.81
2022-12-10T20:39:49.556Z,98634.06
2022-12-10T20:42:27.600Z,98632.41
2022-12-10T20:44:56.001Z,98626.44
2022-12-10T20:47:24.035Z,98622.13
2022-12-10T20:49:54.645Z,98623.84
2022-12-10T20:52:25.442Z,98628.09
2022-12-10T20:54:54.958Z,98631.69
2022-12-10T20:57:24.615Z,98632.53
2022-12-10T20:59:52.360Z,98635.13
2022-12-10T21:02:20.579Z,98635.91
2022-12-10T21:04:48.649Z,98642.00
2022-12-10T21:07:16.656Z,98642.84
2022-12-10T21:09:45.827Z,98641.13
2022-12-10T21:12:14.783Z,98643.66
2022-12-10T21:14:52.277Z,98647.28
2022-12-10T21:17:21.321Z,98643.16
2022-12-10T21:19:49.367Z,98636.81
2022-12-10T21:22:24.163Z,98636.75
2022-12-10T21:24:52.756Z,98647.19
2022-12-10T21:27:26.378Z,98655.00
2022-12-10T21:29:54.513Z,98651.47
2022-12-10T21:32:22.426Z,98654.06
2022-12-10T21:34:50.963Z,98660.22
2022-12-10T21:37:18.464Z,98660.34
2022-12-10T21:39:46.479Z,98665.38
2022-12-10T21:42:33.742Z,98659.28
2022-12-10T21:45:01.824Z,98654.94
2022-12-10T21:47:29.760Z,98660.22
2022-12-10T21:49:57.120Z,98662.84
2022-12-10T21:52:24.698Z,98651.47
2022-12-10T21:54:54.452Z,98653.34
2022-12-10T21:57:22.275Z,98652.44
2022-12-10T21:59:49.950Z,98649.06
2022-12-10T22:02:17.841Z,98635.25
2022-12-10T22:04:45.293Z,98644.66
2022-12-10T22:07:14.496Z,98635.91
2022-12-10T22:09:41.958Z,98638.63
2022-12-10T22:12:09.427Z,98642.91
2022-12-10T22:14:37.068Z,98630.81
2022-12-10T22:17:04.443Z,98627.34
2022-12-10T22:19:32.722Z,98627.28
2022-12-10T22:22:00.188Z,98622.09
2022-12-10T22:24:27.843Z,98634.25
2022-12-10T22:26:56.351Z,98640.34
2022-12-10T22:29:26.457Z,98636.00
2022-12-10T22:31:54.909Z,98639.34
2022-12-10T22:34:23.246Z,98635.09
2022-12-10T22:36:50.908Z,98635.94
2022-12-10T22:39:25.441Z,98636.84
2022-12-10T22:41:52.738Z,98632.53
2022-12-10T22:44:20.293Z,98636.03
2022-12-10T22:46:48.806Z,98635.94
2022-12-10T22:49:16.748Z,98627.28
2022-12-10T22:51:45.110Z,98622.28
2022-12-10T22:54:12.539Z,98629.88
2022-12-10T22:56:40.047Z,98624.78
2022-12-10T22:59:09.986Z,98629.03
2022-12-10T23:01:37.436Z,98622.16
2022-12-10T23:04:04.770Z,98613.44
2022-12-10T23:06:31.824Z,98616.94
2022-12-10T23:08:59.229Z,98610.84
2022-12-10T23:11:26.578Z,98603.09
2022-12-10T23:13:55.770Z,98603.94
2022-12-10T23:16:25.403Z,98607.38
2022-12-10T23:18:52.782Z,98603.03
2022-12-10T23:21:24.412Z,98609.25
2022-12-10T23:23:52.624Z,98606.53
2022-12-10T23:26:22.422Z,98596.13
2022-12-10T23:28:50.535Z,98604.00
2022-12-10T23:31:18.985Z,98601.38
2022-12-10T23:33:46.384Z,98604.88
2022-12-10T23:36:15.644Z,98605.66
2022-12-10T23:38:43.099Z,98610.91
2022-12-10T23:41:12.284Z,98604.88
2022-12-10T23:43:39.698Z,98599.66
2022-12-10T23:46:08.897Z,98600.50
2022-12-10T23:48:36.040Z,98603.28
2022-12-10T23:51:03.964Z,98603.97
2022-12-10T23:53:32.133Z,98607.47
2022-12-10T23:56:16.849Z,98601.31
2022-12-10T23:58:45.086Z,98608.22
